sensor_id;sensor_type;location;lat;lon;timestamp;P1;durP1;ratioP1;P2;durP2;ratioP2
10458;SDS011;5277;48.722;8.736;2023-02-19T00:01:21;7.50;;;5.78;;
10458;SDS011;5277;48.722;8.736;2023-02-19T00:03:49;9.07;;;6.03;;
10458;SDS011;5277;48.722;8.736;2023-02-19T00:06:17;8.10;;;5.45;;
10458;SDS011;5277;48.722;8.736;2023-02-19T00:08:44;9.23;;;5.70;;
10458;SDS011;5277;48.722;8.736;2023-02-19T00:11:10;6.43;;;5.53;;
10458;SDS011;5277;48.722;8.736;2023-02-19T00:13:39;6.47;;;5.35;;
10458;SDS011;5277;48.722;8.736;2023-02-19T00:16:06;8.35;;;5.25;;
10458;SDS011;5277;48.722;8.736;2023-02-19T00:18:37;7.45;;;4.93;;
10458;SDS011;5277;48.722;8.736;2023-02-19T00:21:03;6.65;;;5.18;;
10458;SDS011;5277;48.722;8.736;2023-02-19T00:23:29;9.07;;;5.32;;
10458;SDS011;5277;48.722;8.736;2023-02-19T00:25:55;5.70;;;4.50;;
10458;SDS011;5277;48.722;8.736;2023-02-19T00:28:21;6.63;;;4.75;;
10458;SDS011;5277;48.722;8.736;2023-02-19T00:30:47;5.40;;;4.07;;
10458;SDS011;5277;48.722;8.736;2023-02-19T00:33:13;5.10;;;4.18;;
10458;SDS011;5277;48.722;8.736;2023-02-19T00:35:39;4.25;;;3.55;;
10458;SDS011;5277;48.722;8.736;2023-02-19T00:38:04;5.22;;;3.53;;
10458;SDS011;5277;48.722;8.736;2023-02-19T00:40:30;4.07;;;3.42;;
10458;SDS011;5277;48.722;8.736;2023-02-19T00:42:56;4.65;;;3.53;;
10458;SDS011;5277;48.722;8.736;2023-02-19T00:45:21;4.00;;;3.55;;
10458;SDS011;5277;48.722;8.736;2023-02-19T00:47:47;4.32;;;3.80;;
10458;SDS011;5277;48.722;8.736;2023-02-19T00:50:13;6.13;;;3.45;;
10458;SDS011;5277;48.722;8.736;2023-02-19T00:52:38;3.38;;;3.08;;
10458;SDS011;5277;48.722;8.736;2023-02-19T00:55:04;4.18;;;3.30;;
10458;SDS011;5277;48.722;8.736;2023-02-19T00:57:30;4.93;;;3.60;;
10458;SDS011;5277;48.722;8.736;2023-02-19T00:59:55;4.13;;;3.40;;
10458;SDS011;5277;48.722;8.736;2023-02-19T01:02:21;3.80;;;3.20;;
10458;SDS011;5277;48.722;8.736;2023-02-19T01:04:47;4.97;;;3.30;;
10458;SDS011;5277;48.722;8.736;2023-02-19T01:07:12;3.78;;;3.08;;
10458;SDS011;5277;48.722;8.736;2023-02-19T02:44:41;4.95;;;2.70;;
10458;SDS011;5277;48.722;8.736;2023-02-19T02:51:49;2.65;;;2.40;;
10458;SDS011;5277;48.722;8.736;2023-02-19T02:58:30;3.67;;;2.60;;
10458;SDS011;5277;48.722;8.736;2023-02-19T03:11:44;2.35;;;2.10;;
10458;SDS011;5277;48.722;8.736;2023-02-19T03:24:13;2.92;;;1.90;;
10458;SDS011;5277;48.722;8.736;2023-02-19T03:30:51;1.70;;;1.50;;
10458;SDS011;5277;48.722;8.736;2023-02-19T03:55:13;2.53;;;1.55;;
10458;SDS011;5277;48.722;8.736;2023-02-19T04:08:42;0.95;;;0.80;;
10458;SDS011;5277;48.722;8.736;2023-02-19T04:15:29;1.35;;;0.80;;
10458;SDS011;5277;48.722;8.736;2023-02-19T04:22:20;0.70;;;0.70;;
10458;SDS011;5277;48.722;8.736;2023-02-19T04:28:07;0.63;;;0.50;;
10458;SDS011;5277;48.722;8.736;2023-02-19T04:34:17;0.80;;;0.35;;
10458;SDS011;5277;48.722;8.736;2023-02-19T04:40:09;2.20;;;0.30;;
10458;SDS011;5277;48.722;8.736;2023-02-19T04:43:19;0.35;;;0.30;;
10458;SDS011;5277;48.722;8.736;2023-02-19T04:46:02;0.90;;;0.22;;
10458;SDS011;5277;48.722;8.736;2023-02-19T04:51:36;1.63;;;0.15;;
10458;SDS011;5277;48.722;8.736;2023-02-19T04:54:20;0.68;;;0.20;;
10458;SDS011;5277;48.722;8.736;2023-02-19T04:59:55;0.88;;;0.38;;
10458;SDS011;5277;48.722;8.736;2023-02-19T05:02:58;1.75;;;0.22;;
10458;SDS011;5277;48.722;8.736;2023-02-19T05:05:40;0.63;;;0.32;;
10458;SDS011;5277;48.722;8.736;2023-02-19T05:08:48;0.38;;;0.28;;
10458;SDS011;5277;48.722;8.736;2023-02-19T05:12:28;0.15;;;0.10;;
10458;SDS011;5277;48.722;8.736;2023-02-19T05:19:12;0.25;;;0.20;;
10458;SDS011;5277;48.722;8.736;2023-02-19T05:22:29;0.25;;;0.22;;
10458;SDS011;5277;48.722;8.736;2023-02-19T05:36:33;0.40;;;0.20;;
10458;SDS011;5277;48.722;8.736;2023-02-19T05:39:17;1.13;;;0.25;;
10458;SDS011;5277;48.722;8.736;2023-02-19T05:55:32;0.10;;;0.10;;
10458;SDS011;5277;48.722;8.736;2023-02-19T06:01:45;0.13;;;0.13;;
10458;SDS011;5277;48.722;8.736;2023-02-19T06:12:32;1.38;;;1.10;;
10458;SDS011;5277;48.722;8.736;2023-02-19T06:15:32;2.50;;;0.70;;
10458;SDS011;5277;48.722;8.736;2023-02-19T06:18:58;0.68;;;0.65;;
10458;SDS011;5277;48.722;8.736;2023-02-19T06:39:33;0.65;;;0.52;;
10458;SDS011;5277;48.722;8.736;2023-02-19T07:10:12;1.20;;;0.70;;
10458;SDS011;5277;48.722;8.736;2023-02-19T07:12:37;2.92;;;0.60;;
10458;SDS011;5277;48.722;8.736;2023-02-19T07:15:03;0.77;;;0.60;;
10458;SDS011;5277;48.722;8.736;2023-02-19T07:17:28;0.60;;;0.50;;
10458;SDS011;5277;48.722;8.736;2023-02-19T07:19:54;0.82;;;0.70;;
10458;SDS011;5277;48.722;8.736;2023-02-19T07:22:20;0.80;;;0.60;;
10458;SDS011;5277;48.722;8.736;2023-02-19T07:24:45;1.27;;;0.73;;
10458;SDS011;5277;48.722;8.736;2023-02-19T07:27:11;1.48;;;0.70;;
10458;SDS011;5277;48.722;8.736;2023-02-19T07:29:36;1.63;;;1.10;;
10458;SDS011;5277;48.722;8.736;2023-02-19T07:32:02;0.80;;;0.70;;
10458;SDS011;5277;48.722;8.736;2023-02-19T07:34:28;1.00;;;0.70;;
10458;SDS011;5277;48.722;8.736;2023-02-19T07:36:53;1.73;;;1.23;;
10458;SDS011;5277;48.722;8.736;2023-02-19T07:39:19;3.45;;;1.23;;
10458;SDS011;5277;48.722;8.736;2023-02-19T07:41:44;1.05;;;0.90;;
10458;SDS011;5277;48.722;8.736;2023-02-19T07:44:10;1.73;;;1.10;;
10458;SDS011;5277;48.722;8.736;2023-02-19T07:46:40;1.42;;;0.90;;
10458;SDS011;5277;48.722;8.736;2023-02-19T07:49:06;1.88;;;0.70;;
10458;SDS011;5277;48.722;8.736;2023-02-19T07:51:31;1.42;;;0.98;;
10458;SDS011;5277;48.722;8.736;2023-02-19T07:53:57;1.10;;;1.00;;
10458;SDS011;5277;48.722;8.736;2023-02-19T07:56:22;5.90;;;1.20;;
10458;SDS011;5277;48.722;8.736;2023-02-19T07:58:48;1.30;;;1.15;;
10458;SDS011;5277;48.722;8.736;2023-02-19T08:01:15;1.52;;;1.00;;
10458;SDS011;5277;48.722;8.736;2023-02-19T08:03:42;1.02;;;0.93;;
10458;SDS011;5277;48.722;8.736;2023-02-19T08:06:09;1.15;;;0.90;;
10458;SDS011;5277;48.722;8.736;2023-02-19T08:08:36;2.42;;;1.00;;
10458;SDS011;5277;48.722;8.736;2023-02-19T08:11:04;1.27;;;0.82;;
10458;SDS011;5277;48.722;8.736;2023-02-19T08:13:50;1.77;;;1.10;;
10458;SDS011;5277;48.722;8.736;2023-02-19T08:16:16;1.67;;;0.90;;
10458;SDS011;5277;48.722;8.736;2023-02-19T08:18:44;1.83;;;1.10;;
10458;SDS011;5277;48.722;8.736;2023-02-19T08:21:10;4.00;;;1.83;;
10458;SDS011;5277;48.722;8.736;2023-02-19T08:23:36;1.80;;;1.00;;
10458;SDS011;5277;48.722;8.736;2023-02-19T08:26:03;1.10;;;0.90;;
10458;SDS011;5277;48.722;8.736;2023-02-19T08:28:29;1.23;;;0.88;;
10458;SDS011;5277;48.722;8.736;2023-02-19T08:30:59;1.33;;;0.80;;
10458;SDS011;5277;48.722;8.736;2023-02-19T08:33:26;1.90;;;0.77;;
10458;SDS011;5277;48.722;8.736;2023-02-19T08:35:51;1.00;;;0.70;;
10458;SDS011;5277;48.722;8.736;2023-02-19T08:38:17;2.95;;;0.82;;
10458;SDS011;5277;48.722;8.736;2023-02-19T08:40:43;0.60;;;0.60;;
10458;SDS011;5277;48.722;8.736;2023-02-19T08:43:09;1.60;;;0.73;;
10458;SDS011;5277;48.722;8.736;2023-02-19T08:45:37;1.10;;;0.70;;
10458;SDS011;5277;48.722;8.736;2023-02-19T08:48:03;1.25;;;0.77;;
10458;SDS011;5277;48.722;8.736;2023-02-19T08:50:29;1.45;;;0.98;;
10458;SDS011;5277;48.722;8.736;2023-02-19T08:52:55;3.25;;;0.93;;
10458;SDS011;5277;48.722;8.736;2023-02-19T08:55:22;1.92;;;1.15;;
10458;SDS011;5277;48.722;8.736;2023-02-19T08:57:48;1.88;;;1.15;;
10458;SDS011;5277;48.722;8.736;2023-02-19T09:00:13;1.88;;;1.00;;
10458;SDS011;5277;48.722;8.736;2023-02-19T09:02:39;2.33;;;1.10;;
10458;SDS011;5277;48.722;8.736;2023-02-19T09:05:05;3.97;;;0.90;;
10458;SDS011;5277;48.722;8.736;2023-02-19T09:07:31;2.20;;;1.08;;
10458;SDS011;5277;48.722;8.736;2023-02-19T09:09:56;3.17;;;0.90;;
10458;SDS011;5277;48.722;8.736;2023-02-19T09:12:22;3.13;;;0.90;;
10458;SDS011;5277;48.722;8.736;2023-02-19T09:14:48;4.28;;;1.13;;
10458;SDS011;5277;48.722;8.736;2023-02-19T09:17:14;1.67;;;1.00;;
10458;SDS011;5277;48.722;8.736;2023-02-19T09:19:40;2.03;;;1.00;;
10458;SDS011;5277;48.722;8.736;2023-02-19T09:22:07;2.28;;;0.77;;
10458;SDS011;5277;48.722;8.736;2023-02-19T09:24:32;4.22;;;1.75;;
10458;SDS011;5277;48.722;8.736;2023-02-19T09:26:58;3.45;;;0.80;;
10458;SDS011;5277;48.722;8.736;2023-02-19T09:29:24;3.08;;;1.10;;
10458;SDS011;5277;48.722;8.736;2023-02-19T09:31:54;1.60;;;0.98;;
10458;SDS011;5277;48.722;8.736;2023-02-19T09:34:21;1.80;;;0.90;;
10458;SDS011;5277;48.722;8.736;2023-02-19T09:36:49;1.75;;;0.75;;
10458;SDS011;5277;48.722;8.736;2023-02-19T09:39:15;2.47;;;0.93;;
10458;SDS011;5277;48.722;8.736;2023-02-19T09:44:17;3.55;;;1.02;;
10458;SDS011;5277;48.722;8.736;2023-02-19T09:46:50;2.78;;;1.45;;
10458;SDS011;5277;48.722;8.736;2023-02-19T09:49:22;2.72;;;1.02;;
10458;SDS011;5277;48.722;8.736;2023-02-19T09:54:31;3.78;;;1.23;;
10458;SDS011;5277;48.722;8.736;2023-02-19T09:56:59;2.45;;;1.50;;
10458;SDS011;5277;48.722;8.736;2023-02-19T09:59:30;4.88;;;2.58;;
10458;SDS011;5277;48.722;8.736;2023-02-19T10:02:09;10.32;;;4.57;;
10458;SDS011;5277;48.722;8.736;2023-02-19T10:04:47;3.35;;;1.50;;
10458;SDS011;5277;48.722;8.736;2023-02-19T10:07:18;5.53;;;2.08;;
10458;SDS011;5277;48.722;8.736;2023-02-19T10:09:50;4.43;;;1.30;;
10458;SDS011;5277;48.722;8.736;2023-02-19T10:12:25;4.97;;;1.50;;
10458;SDS011;5277;48.722;8.736;2023-02-19T10:14:53;4.75;;;2.03;;
10458;SDS011;5277;48.722;8.736;2023-02-19T10:17:30;3.35;;;1.80;;
10458;SDS011;5277;48.722;8.736;2023-02-19T10:19:58;4.85;;;1.60;;
10458;SDS011;5277;48.722;8.736;2023-02-19T10:22:27;5.38;;;1.75;;
10458;SDS011;5277;48.722;8.736;2023-02-19T10:24:53;2.25;;;1.20;;
10458;SDS011;5277;48.722;8.736;2023-02-19T10:27:20;4.07;;;1.48;;
10458;SDS011;5277;48.722;8.736;2023-02-19T10:29:46;5.32;;;1.45;;
10458;SDS011;5277;48.722;8.736;2023-02-19T10:32:15;2.80;;;1.17;;
10458;SDS011;5277;48.722;8.736;2023-02-19T10:34:45;2.38;;;1.20;;
10458;SDS011;5277;48.722;8.736;2023-02-19T10:37:12;7.45;;;1.80;;
10458;SDS011;5277;48.722;8.736;2023-02-19T10:39:44;5.35;;;1.77;;
10458;SDS011;5277;48.722;8.736;2023-02-19T10:42:13;3.55;;;2.05;;
10458;SDS011;5277;48.722;8.736;2023-02-19T10:44:53;4.38;;;2.03;;
10458;SDS011;5277;48.722;8.736;2023-02-19T10:47:23;4.07;;;1.98;;
10458;SDS011;5277;48.722;8.736;2023-02-19T10:49:51;3.83;;;1.80;;
10458;SDS011;5277;48.722;8.736;2023-02-19T10:52:21;4.60;;;1.42;;
10458;SDS011;5277;48.722;8.736;2023-02-19T10:54:56;3.75;;;1.30;;
10458;SDS011;5277;48.722;8.736;2023-02-19T10:57:38;7.72;;;1.30;;
10458;SDS011;5277;48.722;8.736;2023-02-19T11:02:47;2.47;;;1.00;;
10458;SDS011;5277;48.722;8.736;2023-02-19T11:05:14;1.83;;;0.70;;
10458;SDS011;5277;48.722;8.736;2023-02-19T11:07:53;2.25;;;1.10;;
10458;SDS011;5277;48.722;8.736;2023-02-19T11:10:39;2.30;;;1.00;;
10458;SDS011;5277;48.722;8.736;2023-02-19T11:13:13;1.33;;;0.77;;
10458;SDS011;5277;48.722;8.736;2023-02-19T11:15:48;4.28;;;1.65;;
10458;SDS011;5277;48.722;8.736;2023-02-19T11:18:26;3.20;;;1.17;;
10458;SDS011;5277;48.722;8.736;2023-02-19T11:20:59;2.28;;;1.08;;
10458;SDS011;5277;48.722;8.736;2023-02-19T11:23:28;2.35;;;1.10;;
10458;SDS011;5277;48.722;8.736;2023-02-19T11:26:23;4.45;;;1.45;;
10458;SDS011;5277;48.722;8.736;2023-02-19T11:28:58;6.13;;;1.45;;
10458;SDS011;5277;48.722;8.736;2023-02-19T11:31:32;3.35;;;1.15;;
10458;SDS011;5277;48.722;8.736;2023-02-19T11:34:01;2.65;;;1.10;;
10458;SDS011;5277;48.722;8.736;2023-02-19T11:36:46;3.13;;;1.08;;
10458;SDS011;5277;48.722;8.736;2023-02-19T11:44:49;4.22;;;1.17;;
10458;SDS011;5277;48.722;8.736;2023-02-19T11:56:41;5.35;;;1.88;;
10458;SDS011;5277;48.722;8.736;2023-02-19T12:04:32;2.28;;;1.27;;
10458;SDS011;5277;48.722;8.736;2023-02-19T12:07:27;4.28;;;1.10;;
10458;SDS011;5277;48.722;8.736;2023-02-19T12:10:20;6.03;;;1.50;;
10458;SDS011;5277;48.722;8.736;2023-02-19T12:26:36;4.85;;;1.38;;
10458;SDS011;5277;48.722;8.736;2023-02-19T12:43:13;4.53;;;1.20;;
10458;SDS011;5277;48.722;8.736;2023-02-19T12:48:33;3.83;;;1.45;;
10458;SDS011;5277;48.722;8.736;2023-02-19T12:51:06;2.33;;;1.45;;
10458;SDS011;5277;48.722;8.736;2023-02-19T12:53:47;2.50;;;1.17;;
10458;SDS011;5277;48.722;8.736;2023-02-19T12:56:42;3.40;;;1.10;;
10458;SDS011;5277;48.722;8.736;2023-02-19T12:59:15;3.50;;;1.10;;
10458;SDS011;5277;48.722;8.736;2023-02-19T13:07:16;3.70;;;0.93;;
10458;SDS011;5277;48.722;8.736;2023-02-19T13:10:21;1.80;;;0.98;;
10458;SDS011;5277;48.722;8.736;2023-02-19T13:46:12;2.80;;;1.13;;
10458;SDS011;5277;48.722;8.736;2023-02-19T14:19:01;3.28;;;1.65;;
10458;SDS011;5277;48.722;8.736;2023-02-19T14:21:34;3.60;;;1.38;;
10458;SDS011;5277;48.722;8.736;2023-02-19T14:24:12;4.15;;;1.20;;
10458;SDS011;5277;48.722;8.736;2023-02-19T14:26:42;2.90;;;1.25;;
10458;SDS011;5277;48.722;8.736;2023-02-19T14:29:12;2.08;;;1.10;;
10458;SDS011;5277;48.722;8.736;2023-02-19T14:31:43;4.70;;;1.40;;
10458;SDS011;5277;48.722;8.736;2023-02-19T14:34:44;4.72;;;1.42;;
10458;SDS011;5277;48.722;8.736;2023-02-19T14:37:49;4.13;;;1.15;;
10458;SDS011;5277;48.722;8.736;2023-02-19T14:43:19;3.42;;;1.83;;
10458;SDS011;5277;48.722;8.736;2023-02-19T14:46:14;4.68;;;1.20;;
10458;SDS011;5277;48.722;8.736;2023-02-19T15:02:40;3.25;;;1.10;;
10458;SDS011;5277;48.722;8.736;2023-02-19T15:05:39;4.15;;;1.40;;
10458;SDS011;5277;48.722;8.736;2023-02-19T15:11:53;3.53;;;1.88;;
10458;SDS011;5277;48.722;8.736;2023-02-19T15:14:37;4.50;;;1.50;;
10458;SDS011;5277;48.722;8.736;2023-02-19T15:20:57;5.85;;;2.00;;
10458;SDS011;5277;48.722;8.736;2023-02-19T15:52:11;3.60;;;1.75;;
10458;SDS011;5277;48.722;8.736;2023-02-19T15:58:59;6.15;;;3.40;;
10458;SDS011;5277;48.722;8.736;2023-02-19T16:01:44;5.30;;;2.38;;
10458;SDS011;5277;48.722;8.736;2023-02-19T16:04:55;3.85;;;2.33;;
10458;SDS011;5277;48.722;8.736;2023-02-19T16:07:28;4.75;;;2.53;;
10458;SDS011;5277;48.722;8.736;2023-02-19T16:10:23;6.30;;;1.98;;
10458;SDS011;5277;48.722;8.736;2023-02-19T16:13:01;4.32;;;2.00;;
10458;SDS011;5277;48.722;8.736;2023-02-19T16:15:44;5.22;;;1.88;;
10458;SDS011;5277;48.722;8.736;2023-02-19T16:18:51;2.53;;;1.67;;
10458;SDS011;5277;48.722;8.736;2023-02-19T16:21:25;3.42;;;1.63;;
10458;SDS011;5277;48.722;8.736;2023-02-19T16:27:56;5.60;;;2.13;;
10458;SDS011;5277;48.722;8.736;2023-02-19T16:31:19;5.82;;;2.30;;
10458;SDS011;5277;48.722;8.736;2023-02-19T16:45:44;4.80;;;1.90;;
10458;SDS011;5277;48.722;8.736;2023-02-19T16:55:38;6.55;;;2.55;;
10458;SDS011;5277;48.722;8.736;2023-02-19T17:01:34;5.82;;;2.20;;
10458;SDS011;5277;48.722;8.736;2023-02-19T17:04:15;5.72;;;2.95;;
10458;SDS011;5277;48.722;8.736;2023-02-19T17:07:21;8.13;;;3.20;;
10458;SDS011;5277;48.722;8.736;2023-02-19T17:09:47;5.32;;;2.53;;
10458;SDS011;5277;48.722;8.736;2023-02-19T17:12:26;7.20;;;2.50;;
10458;SDS011;5277;48.722;8.736;2023-02-19T17:14:51;4.97;;;2.13;;
10458;SDS011;5277;48.722;8.736;2023-02-19T17:17:21;3.20;;;1.90;;
10458;SDS011;5277;48.722;8.736;2023-02-19T17:19:50;4.28;;;2.10;;
10458;SDS011;5277;48.722;8.736;2023-02-19T17:22:20;4.03;;;2.08;;
10458;SDS011;5277;48.722;8.736;2023-02-19T17:24:48;4.55;;;1.90;;
10458;SDS011;5277;48.722;8.736;2023-02-19T17:27:14;5.25;;;2.10;;
10458;SDS011;5277;48.722;8.736;2023-02-19T17:29:39;4.35;;;2.00;;
10458;SDS011;5277;48.722;8.736;2023-02-19T17:32:11;7.68;;;1.88;;
10458;SDS011;5277;48.722;8.736;2023-02-19T17:34:38;6.20;;;1.77;;
10458;SDS011;5277;48.722;8.736;2023-02-19T17:37:06;3.17;;;1.70;;
10458;SDS011;5277;48.722;8.736;2023-02-19T17:39:35;8.38;;;1.90;;
10458;SDS011;5277;48.722;8.736;2023-02-19T17:42:00;7.50;;;2.03;;
10458;SDS011;5277;48.722;8.736;2023-02-19T17:44:26;6.57;;;2.03;;
10458;SDS011;5277;48.722;8.736;2023-02-19T17:46:55;4.22;;;1.60;;
10458;SDS011;5277;48.722;8.736;2023-02-19T17:52:28;4.90;;;1.77;;
10458;SDS011;5277;48.722;8.736;2023-02-19T17:54:56;4.72;;;2.28;;
10458;SDS011;5277;48.722;8.736;2023-02-19T17:57:22;7.03;;;1.70;;
10458;SDS011;5277;48.722;8.736;2023-02-19T17:59:48;5.15;;;2.35;;
10458;SDS011;5277;48.722;8.736;2023-02-19T18:02:13;5.32;;;2.00;;
10458;SDS011;5277;48.722;8.736;2023-02-19T18:04:45;4.47;;;2.42;;
10458;SDS011;5277;48.722;8.736;2023-02-19T18:07:16;7.63;;;1.90;;
10458;SDS011;5277;48.722;8.736;2023-02-19T18:09:49;4.15;;;1.95;;
10458;SDS011;5277;48.722;8.736;2023-02-19T18:12:18;7.47;;;2.00;;
10458;SDS011;5277;48.722;8.736;2023-02-19T18:14:47;5.57;;;2.05;;
10458;SDS011;5277;48.722;8.736;2023-02-19T18:17:15;3.65;;;1.60;;
10458;SDS011;5277;48.722;8.736;2023-02-19T18:19:43;6.55;;;2.10;;
10458;SDS011;5277;48.722;8.736;2023-02-19T18:22:19;2.80;;;1.88;;
10458;SDS011;5277;48.722;8.736;2023-02-19T18:25:10;7.05;;;1.80;;
10458;SDS011;5277;48.722;8.736;2023-02-19T18:27:36;5.88;;;1.77;;
10458;SDS011;5277;48.722;8.736;2023-02-19T18:30:01;4.38;;;2.20;;
10458;SDS011;5277;48.722;8.736;2023-02-19T18:32:27;5.80;;;2.33;;
10458;SDS011;5277;48.722;8.736;2023-02-19T18:34:56;9.65;;;1.90;;
10458;SDS011;5277;48.722;8.736;2023-02-19T18:37:24;7.07;;;2.05;;
10458;SDS011;5277;48.722;8.736;2023-02-19T18:39:51;4.03;;;2.00;;
10458;SDS011;5277;48.722;8.736;2023-02-19T18:42:17;4.47;;;2.42;;
10458;SDS011;5277;48.722;8.736;2023-02-19T18:44:46;6.47;;;3.40;;
10458;SDS011;5277;48.722;8.736;2023-02-19T18:47:15;6.90;;;3.50;;
10458;SDS011;5277;48.722;8.736;2023-02-19T18:49:48;6.53;;;3.80;;
10458;SDS011;5277;48.722;8.736;2023-02-19T18:52:15;8.63;;;2.92;;
10458;SDS011;5277;48.722;8.736;2023-02-19T18:55:28;7.38;;;2.33;;
10458;SDS011;5277;48.722;8.736;2023-02-19T18:58:44;4.18;;;2.30;;
10458;SDS011;5277;48.722;8.736;2023-02-19T19:11:35;6.85;;;3.45;;
10458;SDS011;5277;48.722;8.736;2023-02-19T19:14:26;7.75;;;2.50;;
10458;SDS011;5277;48.722;8.736;2023-02-19T19:17:01;7.00;;;2.15;;
10458;SDS011;5277;48.722;8.736;2023-02-19T19:19:33;5.95;;;3.15;;
10458;SDS011;5277;48.722;8.736;2023-02-19T19:22:12;6.28;;;2.60;;
10458;SDS011;5277;48.722;8.736;2023-02-19T19:24:52;5.30;;;2.50;;
10458;SDS011;5277;48.722;8.736;2023-02-19T19:27:26;6.10;;;2.50;;
10458;SDS011;5277;48.722;8.736;2023-02-19T19:29:52;4.35;;;1.98;;
10458;SDS011;5277;48.722;8.736;2023-02-19T19:32:23;6.60;;;2.88;;
10458;SDS011;5277;48.722;8.736;2023-02-19T19:34:53;6.38;;;2.70;;
10458;SDS011;5277;48.722;8.736;2023-02-19T19:37:19;7.38;;;2.15;;
10458;SDS011;5277;48.722;8.736;2023-02-19T19:39:44;7.22;;;2.60;;
10458;SDS011;5277;48.722;8.736;2023-02-19T19:42:27;10.00;;;2.60;;
10458;SDS011;5277;48.722;8.736;2023-02-19T19:45:21;8.02;;;2.70;;
10458;SDS011;5277;48.722;8.736;2023-02-19T19:47:52;7.85;;;2.95;;
10458;SDS011;5277;48.722;8.736;2023-02-19T19:53:54;9.48;;;3.08;;
10458;SDS011;5277;48.722;8.736;2023-02-19T19:56:41;7.72;;;3.70;;
10458;SDS011;5277;48.722;8.736;2023-02-19T19:59:28;7.47;;;3.30;;
10458;SDS011;5277;48.722;8.736;2023-02-19T20:01:59;5.78;;;3.38;;
10458;SDS011;5277;48.722;8.736;2023-02-19T20:04:27;6.55;;;3.30;;
10458;SDS011;5277;48.722;8.736;2023-02-19T20:06:52;6.28;;;3.38;;
10458;SDS011;5277;48.722;8.736;2023-02-19T20:09:30;9.15;;;4.03;;
10458;SDS011;5277;48.722;8.736;2023-02-19T20:11:58;6.82;;;3.15;;
10458;SDS011;5277;48.722;8.736;2023-02-19T20:14:29;6.68;;;3.60;;
10458;SDS011;5277;48.722;8.736;2023-02-19T20:16:58;10.75;;;5.45;;
10458;SDS011;5277;48.722;8.736;2023-02-19T20:19:33;7.70;;;3.25;;
10458;SDS011;5277;48.722;8.736;2023-02-19T20:22:26;6.85;;;3.42;;
10458;SDS011;5277;48.722;8.736;2023-02-19T20:24:57;8.93;;;2.90;;
10458;SDS011;5277;48.722;8.736;2023-02-19T20:27:48;6.03;;;2.67;;
10458;SDS011;5277;48.722;8.736;2023-02-19T20:30:24;4.07;;;2.42;;
10458;SDS011;5277;48.722;8.736;2023-02-19T20:33:01;6.93;;;2.72;;
10458;SDS011;5277;48.722;8.736;2023-02-19T20:35:45;7.95;;;2.60;;
10458;SDS011;5277;48.722;8.736;2023-02-19T20:41:44;6.13;;;2.55;;
10458;SDS011;5277;48.722;8.736;2023-02-19T20:44:19;7.20;;;3.22;;
10458;SDS011;5277;48.722;8.736;2023-02-19T21:01:23;4.75;;;2.92;;
10458;SDS011;5277;48.722;8.736;2023-02-19T21:04:05;8.63;;;3.30;;
10458;SDS011;5277;48.722;8.736;2023-02-19T21:06:40;11.02;;;3.03;;
10458;SDS011;5277;48.722;8.736;2023-02-19T21:09:11;7.22;;;3.20;;
10458;SDS011;5277;48.722;8.736;2023-02-19T21:11:42;4.32;;;2.97;;
10458;SDS011;5277;48.722;8.736;2023-02-19T21:14:16;5.93;;;3.15;;
10458;SDS011;5277;48.722;8.736;2023-02-19T21:16:47;8.13;;;3.33;;
10458;SDS011;5277;48.722;8.736;2023-02-19T21:19:18;4.53;;;2.63;;
10458;SDS011;5277;48.722;8.736;2023-02-19T21:24:51;14.65;;;4.55;;
10458;SDS011;5277;48.722;8.736;2023-02-19T21:27:25;8.38;;;4.30;;
10458;SDS011;5277;48.722;8.736;2023-02-19T21:30:01;7.95;;;3.70;;
10458;SDS011;5277;48.722;8.736;2023-02-19T21:32:53;6.97;;;4.10;;
10458;SDS011;5277;48.722;8.736;2023-02-19T21:35:40;10.18;;;5.22;;
10458;SDS011;5277;48.722;8.736;2023-02-19T21:38:26;9.55;;;5.13;;
10458;SDS011;5277;48.722;8.736;2023-02-19T21:44:20;6.97;;;4.10;;
10458;SDS011;5277;48.722;8.736;2023-02-19T21:46:54;7.63;;;3.03;;
10458;SDS011;5277;48.722;8.736;2023-02-19T21:49:31;8.75;;;3.50;;
10458;SDS011;5277;48.722;8.736;2023-02-19T21:52:05;8.30;;;4.65;;
10458;SDS011;5277;48.722;8.736;2023-02-19T21:54:46;7.20;;;3.88;;
10458;SDS011;5277;48.722;8.736;2023-02-19T21:57:34;7.55;;;3.20;;
10458;SDS011;5277;48.722;8.736;2023-02-19T22:03:49;7.20;;;3.65;;
10458;SDS011;5277;48.722;8.736;2023-02-19T22:06:24;7.85;;;3.40;;
10458;SDS011;5277;48.722;8.736;2023-02-19T22:08:54;8.13;;;3.80;;
10458;SDS011;5277;48.722;8.736;2023-02-19T22:11:24;8.45;;;3.20;;
10458;SDS011;5277;48.722;8.736;2023-02-19T22:13:55;6.53;;;3.50;;
10458;SDS011;5277;48.722;8.736;2023-02-19T22:16:36;9.63;;;3.83;;
10458;SDS011;5277;48.722;8.736;2023-02-19T22:19:08;7.93;;;3.90;;
10458;SDS011;5277;48.722;8.736;2023-02-19T22:21:40;5.80;;;3.67;;
10458;SDS011;5277;48.722;8.736;2023-02-19T22:24:18;10.10;;;4.53;;
10458;SDS011;5277;48.722;8.736;2023-02-19T22:26:53;8.27;;;4.40;;
10458;SDS011;5277;48.722;8.736;2023-02-19T22:29:25;8.95;;;5.10;;
10458;SDS011;5277;48.722;8.736;2023-02-19T22:32:01;13.52;;;7.65;;
10458;SDS011;5277;48.722;8.736;2023-02-19T22:34:40;12.77;;;6.32;;
10458;SDS011;5277;48.722;8.736;2023-02-19T22:37:25;10.02;;;5.82;;
10458;SDS011;5277;48.722;8.736;2023-02-19T22:39:54;12.23;;;5.97;;
10458;SDS011;5277;48.722;8.736;2023-02-19T22:42:22;13.05;;;6.43;;
10458;SDS011;5277;48.722;8.736;2023-02-19T22:45:06;11.30;;;5.90;;
10458;SDS011;5277;48.722;8.736;2023-02-19T22:48:10;14.88;;;6.45;;
10458;SDS011;5277;48.722;8.736;2023-02-19T22:50:50;12.75;;;6.07;;
10458;SDS011;5277;48.722;8.736;2023-02-19T22:54:09;10.73;;;5.93;;
10458;SDS011;5277;48.722;8.736;2023-02-19T22:56:57;10.57;;;5.55;;
10458;SDS011;5277;48.722;8.736;2023-02-19T22:59:25;10.40;;;5.30;;
10458;SDS011;5277;48.722;8.736;2023-02-19T23:02:12;9.90;;;5.47;;
10458;SDS011;5277;48.722;8.736;2023-02-19T23:04:51;11.93;;;5.50;;
10458;SDS011;5277;48.722;8.736;2023-02-19T23:07:35;10.07;;;5.60;;
10458;SDS011;5277;48.722;8.736;2023-02-19T23:10:14;10.18;;;5.50;;
10458;SDS011;5277;48.722;8.736;2023-02-19T23:13:04;9.48;;;5.32;;
10458;SDS011;5277;48.722;8.736;2023-02-19T23:15:32;11.63;;;4.30;;
10458;SDS011;5277;48.722;8.736;2023-02-19T23:18:04;7.32;;;4.55;;
10458;SDS011;5277;48.722;8.736;2023-02-19T23:20:48;5.70;;;3.60;;
10458;SDS011;5277;48.722;8.736;2023-02-19T23:23:19;8.25;;;4.25;;
10458;SDS011;5277;48.722;8.736;2023-02-19T23:25:45;7.80;;;4.10;;
10458;SDS011;5277;48.722;8.736;2023-02-19T23:28:11;4.28;;;3.53;;
10458;SDS011;5277;48.722;8.736;2023-02-19T23:30:41;10.90;;;4.32;;
10458;SDS011;5277;48.722;8.736;2023-02-19T23:35:52;6.38;;;4.20;;
10458;SDS011;5277;48.722;8.736;2023-02-19T23:38:24;7.32;;;3.80;;
10458;SDS011;5277;48.722;8.736;2023-02-19T23:44:13;9.45;;;4.22;;
10458;SDS011;5277;48.722;8.736;2023-02-19T23:46:44;10.75;;;4.90;;
10458;SDS011;5277;48.722;8.736;2023-02-19T23:49:18;9.43;;;4.07;;
10458;SDS011;5277;48.722;8.736;2023-02-19T23:51:44;9.68;;;4.40;;
10458;SDS011;5277;48.722;8.736;2023-02-19T23:54:17;8.02;;;4.20;;
